createdAt,value
2017-09-15T00:00:01.700Z,780.2
2017-09-15T00:00:06.164Z,780.23
2017-09-15T00:00:10.493Z,780.23
2017-09-15T00:00:14.688Z,780.23
2017-09-15T00:00:18.510Z,780.25
2017-09-15T00:00:22.475Z,780.25
2017-09-15T00:00:26.305Z,780.25
2017-09-15T00:00:30.507Z,780.28
2017-09-15T00:00:34.470Z,780.28
2017-09-15T00:00:38.798Z,780.26
2017-09-15T00:00:43.012Z,780.23
2017-09-15T00:00:47.346Z,780.28
2017-09-15T00:00:51.438Z,780.26
2017-09-15T00:00:55.530Z,780.25
2017-09-15T00:00:59.622Z,780.32
2017-09-15T00:01:03.859Z,780.29
2017-09-15T00:01:08.188Z,780.27
2017-09-15T00:01:12.396Z,780.28
2017-09-15T00:01:16.624Z,780.27
2017-09-15T00:01:20.716Z,780.27
2017-09-15T00:01:24.808Z,780.31
2017-09-15T00:01:28.767Z,780.28
2017-09-15T00:01:32.964Z,780.32
2017-09-15T00:01:37.084Z,780.29
2017-09-15T00:01:41.300Z,780.26
2017-09-15T00:01:45.520Z,780.3
2017-09-15T00:01:49.728Z,780.26
2017-09-15T00:01:53.805Z,780.29
2017-09-15T00:01:58.009Z,780.28
2017-09-15T00:02:02.225Z,780.31
2017-09-15T00:02:06.179Z,780.31
2017-09-15T00:02:10.260Z,780.27
2017-09-15T00:02:14.485Z,780.26
2017-09-15T00:02:18.710Z,780.27
2017-09-15T00:02:22.922Z,780.28
2017-09-15T00:02:27.260Z,780.26
2017-09-15T00:02:31.475Z,780.25
2017-09-15T00:02:35.697Z,780.32
2017-09-15T00:02:40.037Z,780.32
2017-09-15T00:02:44.518Z,780.33
2017-09-15T00:02:48.731Z,780.33
2017-09-15T00:02:53.062Z,780.35
2017-09-15T00:02:57.278Z,780.33
2017-09-15T00:03:01.491Z,780.27
2017-09-15T00:03:05.459Z,780.31
2017-09-15T00:03:09.684Z,780.28
2017-09-15T00:03:14.027Z,780.36
2017-09-15T00:03:18.492Z,780.35
2017-09-15T00:03:22.576Z,780.34
2017-09-15T00:03:26.914Z,780.35
2017-09-15T00:03:31.133Z,780.35
2017-09-15T00:03:35.341Z,780.36
2017-09-15T00:03:39.694Z,780.34
2017-09-15T00:03:43.775Z,780.32
2017-09-15T00:03:48.244Z,780.37
2017-09-15T00:03:52.463Z,780.38
2017-09-15T00:03:56.669Z,780.36
2017-09-15T00:04:00.880Z,780.36
2017-09-15T00:04:04.967Z,780.36
2017-09-15T00:04:09.301Z,780.31
2017-09-15T00:04:13.511Z,780.36
2017-09-15T00:04:17.989Z,780.39
2017-09-15T00:04:21.953Z,780.37
2017-09-15T00:04:26.058Z,780.39
2017-09-15T00:04:30.277Z,780.4
2017-09-15T00:04:34.361Z,780.38
2017-09-15T00:04:38.441Z,780.41
2017-09-15T00:04:42.774Z,780.39
2017-09-15T00:04:46.977Z,780.38
2017-09-15T00:04:51.434Z,780.39
2017-09-15T00:04:55.514Z,780.4
2017-09-15T00:04:59.722Z,780.42
2017-09-15T00:05:03.986Z,780.36
2017-09-15T00:05:08.326Z,780.4
2017-09-15T00:05:12.676Z,780.42
2017-09-15T00:05:17.011Z,780.43
2017-09-15T00:05:21.086Z,780.43
2017-09-15T00:05:25.448Z,780.41
2017-09-15T00:05:29.408Z,780.43
2017-09-15T00:05:33.742Z,780.43
2017-09-15T00:05:37.963Z,780.36
2017-09-15T00:05:42.062Z,780.43
2017-09-15T00:05:46.025Z,780.39
2017-09-15T00:05:50.241Z,780.42
2017-09-15T00:05:54.079Z,780.39
2017-09-15T00:05:58.302Z,780.39
2017-09-15T00:06:02.496Z,780.43
2017-09-15T00:06:06.451Z,780.42
2017-09-15T00:06:10.662Z,780.44
2017-09-15T00:06:14.881Z,780.44
2017-09-15T00:06:19.097Z,780.44
2017-09-15T00:06:23.302Z,780.45
2017-09-15T00:06:27.522Z,780.44
2017-09-15T00:06:31.468Z,780.44
2017-09-15T00:06:35.435Z,780.46
2017-09-15T00:06:39.530Z,780.44
2017-09-15T00:06:43.756Z,780.43
2017-09-15T00:06:48.099Z,780.43
2017-09-15T00:06:52.308Z,780.42
2017-09-15T00:06:56.269Z,780.43
2017-09-15T00:07:00.360Z,780.43
2017-09-15T00:07:04.690Z,780.43
2017-09-15T00:07:09.159Z,780.41
2017-09-15T00:07:13.545Z,780.43
2017-09-15T00:07:17.507Z,780.44
2017-09-15T00:07:21.583Z,780.43
2017-09-15T00:07:25.915Z,780.45
2017-09-15T00:07:30.041Z,780.44
2017-09-15T00:07:34.260Z,780.42
2017-09-15T00:07:38.222Z,780.46
2017-09-15T00:07:42.311Z,780.44
2017-09-15T00:07:46.536Z,780.46
2017-09-15T00:07:50.734Z,780.42
2017-09-15T00:07:54.688Z,780.44
2017-09-15T00:07:58.526Z,780.44
2017-09-15T00:08:02.833Z,780.41
2017-09-15T00:08:07.171Z,780.43
2017-09-15T00:08:11.368Z,780.46
2017-09-15T00:08:15.449Z,780.44
2017-09-15T00:08:19.542Z,780.46
2017-09-15T00:08:23.618Z,780.43
2017-09-15T00:08:27.816Z,780.47
2017-09-15T00:08:32.032Z,780.48
2017-09-15T00:08:36.009Z,780.49
2017-09-15T00:08:40.087Z,780.49
2017-09-15T00:08:44.294Z,780.47
2017-09-15T00:08:48.397Z,780.48
2017-09-15T00:08:52.867Z,780.46
2017-09-15T00:08:57.087Z,780.48
2017-09-15T00:09:01.553Z,780.46
2017-09-15T00:09:06.204Z,780.44
2017-09-15T00:09:10.667Z,780.47
2017-09-15T00:09:14.647Z,780.51
2017-09-15T00:09:18.867Z,780.49
2017-09-15T00:09:22.954Z,780.5
2017-09-15T00:09:27.295Z,780.5
2017-09-15T00:09:31.256Z,780.5
2017-09-15T00:09:35.476Z,780.5
2017-09-15T00:09:39.671Z,780.51
2017-09-15T00:09:43.881Z,780.52
2017-09-15T00:09:47.836Z,780.5
2017-09-15T00:09:51.938Z,780.53
2017-09-15T00:09:56.393Z,780.53
2017-09-15T00:10:00.606Z,780.52
2017-09-15T00:10:04.824Z,780.55
2017-09-15T00:10:09.039Z,780.54
2017-09-15T00:10:13.129Z,780.53
2017-09-15T00:10:17.330Z,780.52
2017-09-15T00:10:21.296Z,780.55
2017-09-15T00:10:25.390Z,780.56
2017-09-15T00:10:29.484Z,780.54
2017-09-15T00:10:33.700Z,780.54
2017-09-15T00:10:37.664Z,780.57
2017-09-15T00:10:41.874Z,780.57
2017-09-15T00:10:45.953Z,780.57
2017-09-15T00:10:49.802Z,780.57
2017-09-15T00:10:53.656Z,780.6
2017-09-15T00:10:58.113Z,780.57
2017-09-15T00:11:02.343Z,780.59
2017-09-15T00:11:06.055Z,780.58
2017-09-15T00:11:10.156Z,780.63
2017-09-15T00:11:14.378Z,780.6
2017-09-15T00:11:18.224Z,780.59
2017-09-15T00:11:22.437Z,780.58
2017-09-15T00:11:26.524Z,780.56
2017-09-15T00:11:30.860Z,780.6
2017-09-15T00:11:34.936Z,780.55
2017-09-15T00:11:39.140Z,780.59
2017-09-15T00:11:43.360Z,780.58
2017-09-15T00:11:47.704Z,780.58
2017-09-15T00:11:51.896Z,780.6
2017-09-15T00:11:56.107Z,780.63
2017-09-15T00:12:00.319Z,780.62
2017-09-15T00:12:04.895Z,780.6
2017-09-15T00:12:08.732Z,780.61
2017-09-15T00:12:12.960Z,780.61
2017-09-15T00:12:17.051Z,780.63
2017-09-15T00:12:21.275Z,780.62
2017-09-15T00:12:25.241Z,780.61
2017-09-15T00:12:29.444Z,780.63
2017-09-15T00:12:33.543Z,780.62
2017-09-15T00:12:37.876Z,780.61
2017-09-15T00:12:42.083Z,780.61
2017-09-15T00:12:46.163Z,780.62
2017-09-15T00:12:50.236Z,780.61
2017-09-15T00:12:54.433Z,780.62
2017-09-15T00:12:58.500Z,780.58
2017-09-15T00:13:02.622Z,780.58
2017-09-15T00:13:06.715Z,780.63
2017-09-15T00:13:11.049Z,780.63
2017-09-15T00:13:15.018Z,780.6
2017-09-15T00:13:19.109Z,780.62
2017-09-15T00:13:23.350Z,780.62
2017-09-15T00:13:27.156Z,780.62
2017-09-15T00:13:31.499Z,780.63
2017-09-15T00:13:35.830Z,780.64
2017-09-15T00:13:39.905Z,780.65
2017-09-15T00:13:44.008Z,780.6
2017-09-15T00:13:48.201Z,780.62
2017-09-15T00:13:52.160Z,780.59
2017-09-15T00:13:56.000Z,780.63
2017-09-15T00:13:59.953Z,780.67
2017-09-15T00:14:04.199Z,780.63
2017-09-15T00:14:08.179Z,780.63
2017-09-15T00:14:12.134Z,780.64
2017-09-15T00:14:16.220Z,780.64
2017-09-15T00:14:20.579Z,780.63
2017-09-15T00:14:24.655Z,780.63
2017-09-15T00:14:28.991Z,780.62
2017-09-15T00:14:33.202Z,780.62
2017-09-15T00:14:37.293Z,780.59
2017-09-15T00:14:41.374Z,780.62
2017-09-15T00:14:45.472Z,780.63
2017-09-15T00:14:49.816Z,780.62
2017-09-15T00:14:54.156Z,780.65
2017-09-15T00:14:58.242Z,780.65
2017-09-15T00:15:02.639Z,780.64
2017-09-15T00:15:06.728Z,780.65
2017-09-15T00:15:10.947Z,780.65
2017-09-15T00:15:15.017Z,780.67
2017-09-15T00:15:18.968Z,780.64
2017-09-15T00:15:23.064Z,780.63
2017-09-15T00:15:27.159Z,780.59
2017-09-15T00:15:31.477Z,780.62
2017-09-15T00:15:35.682Z,780.63
2017-09-15T00:15:39.529Z,780.61
2017-09-15T00:15:43.498Z,780.67
2017-09-15T00:15:47.826Z,780.68
2017-09-15T00:15:52.161Z,780.6
2017-09-15T00:15:56.252Z,780.66
2017-09-15T00:16:00.207Z,780.7
2017-09-15T00:16:04.359Z,780.68
2017-09-15T00:16:08.430Z,780.68
2017-09-15T00:16:12.629Z,780.68
2017-09-15T00:16:17.186Z,780.68
2017-09-15T00:16:21.275Z,780.69
2017-09-15T00:16:25.356Z,780.7
2017-09-15T00:16:29.441Z,780.67
2017-09-15T00:16:33.878Z,780.71
2017-09-15T00:16:37.974Z,780.67
2017-09-15T00:16:41.942Z,780.67
2017-09-15T00:16:46.157Z,780.68
2017-09-15T00:16:50.374Z,780.68
2017-09-15T00:16:54.472Z,780.69
2017-09-15T00:16:58.436Z,780.67
2017-09-15T00:17:02.918Z,780.68
2017-09-15T00:17:07.267Z,780.64
2017-09-15T00:17:11.476Z,780.66
2017-09-15T00:17:15.424Z,780.69
2017-09-15T00:17:19.503Z,780.69
2017-09-15T00:17:23.841Z,780.69
2017-09-15T00:17:28.186Z,780.7
2017-09-15T00:17:32.140Z,780.73
2017-09-15T00:17:36.095Z,780.67
2017-09-15T00:17:40.317Z,780.71
2017-09-15T00:17:44.149Z,780.71
2017-09-15T00:17:48.242Z,780.72
2017-09-15T00:17:52.697Z,780.73
2017-09-15T00:17:56.790Z,780.73
2017-09-15T00:18:00.876Z,780.72
2017-09-15T00:18:04.829Z,780.73
2017-09-15T00:18:09.042Z,780.71
2017-09-15T00:18:13.122Z,780.7
2017-09-15T00:18:17.073Z,780.72
2017-09-15T00:18:21.164Z,780.72
2017-09-15T00:18:25.374Z,780.67
2017-09-15T00:18:29.326Z,780.72
2017-09-15T00:18:33.527Z,780.75
2017-09-15T00:18:37.743Z,780.71
2017-09-15T00:18:41.706Z,780.72
2017-09-15T00:18:45.660Z,780.76
2017-09-15T00:18:50.004Z,780.73
2017-09-15T00:18:54.077Z,780.73
2017-09-15T00:18:58.408Z,780.77
2017-09-15T00:19:02.251Z,780.74
2017-09-15T00:19:06.446Z,780.74
2017-09-15T00:19:10.900Z,780.74
2017-09-15T00:19:14.866Z,780.75
2017-09-15T00:19:19.094Z,780.69
2017-09-15T00:19:23.183Z,780.74
2017-09-15T00:19:27.150Z,780.73
2017-09-15T00:19:31.127Z,780.75
2017-09-15T00:19:35.607Z,780.75
2017-09-15T00:19:39.689Z,780.73
2017-09-15T00:19:43.640Z,780.73
2017-09-15T00:19:47.848Z,780.72
2017-09-15T00:19:52.067Z,780.73
2017-09-15T00:19:56.156Z,780.71
2017-09-15T00:20:00.113Z,780.75
2017-09-15T00:20:04.647Z,780.74
2017-09-15T00:20:08.852Z,780.77
2017-09-15T00:20:13.199Z,780.77
2017-09-15T00:20:17.393Z,780.78
2017-09-15T00:20:21.738Z,780.8
2017-09-15T00:20:25.964Z,780.78
2017-09-15T00:20:30.186Z,780.76
2017-09-15T00:20:34.253Z,780.79
2017-09-15T00:20:38.349Z,780.74
2017-09-15T00:20:42.058Z,780.78
2017-09-15T00:20:45.882Z,780.79
2017-09-15T00:20:50.094Z,780.77
2017-09-15T00:20:54.296Z,780.78
2017-09-15T00:20:58.641Z,780.76
2017-09-15T00:21:02.480Z,780.77
2017-09-15T00:21:06.566Z,780.76
2017-09-15T00:21:10.900Z,780.8
2017-09-15T00:21:14.988Z,780.77
2017-09-15T00:21:19.405Z,780.79
2017-09-15T00:21:23.617Z,780.8
2017-09-15T00:21:27.703Z,780.76
2017-09-15T00:21:31.921Z,780.75
2017-09-15T00:21:35.997Z,780.83
2017-09-15T00:21:39.970Z,780.81
2017-09-15T00:21:44.171Z,780.81
2017-09-15T00:21:48.129Z,780.81
2017-09-15T00:21:52.099Z,780.8
2017-09-15T00:21:56.188Z,780.81
2017-09-15T00:22:00.285Z,780.78
2017-09-15T00:22:04.366Z,780.8
2017-09-15T00:22:08.444Z,780.81
2017-09-15T00:22:12.645Z,780.83
2017-09-15T00:22:16.605Z,780.81
2017-09-15T00:22:20.812Z,780.81
2017-09-15T00:22:25.276Z,780.82
2017-09-15T00:22:29.353Z,780.85
2017-09-15T00:22:33.302Z,780.83
2017-09-15T00:22:37.650Z,780.83
2017-09-15T00:22:41.864Z,780.83
2017-09-15T00:22:46.212Z,780.83
2017-09-15T00:22:50.302Z,780.83
2017-09-15T00:22:54.383Z,780.88
2017-09-15T00:22:58.223Z,780.83
2017-09-15T00:23:02.734Z,780.85
2017-09-15T00:23:07.196Z,780.85
2017-09-15T00:23:11.152Z,780.84
2017-09-15T00:23:14.983Z,780.84
2017-09-15T00:23:19.187Z,780.87
2017-09-15T00:23:23.261Z,780.86
2017-09-15T00:23:27.483Z,780.87
2017-09-15T00:23:31.701Z,780.85
2017-09-15T00:23:36.048Z,780.85
2017-09-15T00:23:40.388Z,780.85
2017-09-15T00:23:44.334Z,780.87
2017-09-15T00:23:48.536Z,780.87
2017-09-15T00:23:52.512Z,780.86
2017-09-15T00:23:56.461Z,780.84
2017-09-15T00:24:00.420Z,780.86
2017-09-15T00:24:04.578Z,780.9
2017-09-15T00:24:08.919Z,780.88
2017-09-15T00:24:13.015Z,780.89
2017-09-15T00:24:17.362Z,780.88
2017-09-15T00:24:21.440Z,780.9
2017-09-15T00:24:25.408Z,780.92
2017-09-15T00:24:29.535Z,780.92
2017-09-15T00:24:33.383Z,780.91
2017-09-15T00:24:37.587Z,780.89
2017-09-15T00:24:41.681Z,780.9
2017-09-15T00:24:45.777Z,780.92
2017-09-15T00:24:49.989Z,780.86
2017-09-15T00:24:54.451Z,780.93
2017-09-15T00:24:58.526Z,780.93
2017-09-15T00:25:02.728Z,780.97
2017-09-15T00:25:06.947Z,780.93
2017-09-15T00:25:11.173Z,780.94
2017-09-15T00:25:15.411Z,780.96
2017-09-15T00:25:19.500Z,780.95
2017-09-15T00:25:23.703Z,780.96
2017-09-15T00:25:27.665Z,780.96
2017-09-15T00:25:31.760Z,780.95
2017-09-15T00:25:35.712Z,780.98
2017-09-15T00:25:39.910Z,780.99
2017-09-15T00:25:44.129Z,780.97
2017-09-15T00:25:48.325Z,780.94
2017-09-15T00:25:52.168Z,780.95
2017-09-15T00:25:56.368Z,780.95
2017-09-15T00:26:00.469Z,780.92
2017-09-15T00:26:04.816Z,780.93
2017-09-15T00:26:08.908Z,780.97
2017-09-15T00:26:13.127Z,780.98
2017-09-15T00:26:17.093Z,780.97
2017-09-15T00:26:21.302Z,780.98
2017-09-15T00:26:25.635Z,780.96
2017-09-15T00:26:29.984Z,780.98
2017-09-15T00:26:34.186Z,780.98
2017-09-15T00:26:38.147Z,780.98
2017-09-15T00:26:42.237Z,780.99
2017-09-15T00:26:46.485Z,780.95
2017-09-15T00:26:50.583Z,781
2017-09-15T00:26:54.675Z,780.96
2017-09-15T00:26:58.884Z,781.01
2017-09-15T00:27:03.095Z,780.99
2017-09-15T00:27:07.447Z,780.97
2017-09-15T00:27:11.532Z,780.98
2017-09-15T00:27:15.746Z,780.99
2017-09-15T00:27:19.844Z,780.96
2017-09-15T00:27:24.072Z,780.99
2017-09-15T00:27:28.162Z,780.98
2017-09-15T00:27:32.608Z,780.99
2017-09-15T00:27:36.573Z,780.99
2017-09-15T00:27:40.903Z,780.99
2017-09-15T00:27:44.988Z,781.02
2017-09-15T00:27:49.064Z,780.98
2017-09-15T00:27:53.287Z,781
2017-09-15T00:27:57.239Z,781
2017-09-15T00:28:01.329Z,780.97
2017-09-15T00:28:05.530Z,780.99
2017-09-15T00:28:09.368Z,780.98
2017-09-15T00:28:13.452Z,780.96
2017-09-15T00:28:17.519Z,780.97
2017-09-15T00:28:21.615Z,780.98
2017-09-15T00:28:25.576Z,780.99
2017-09-15T00:28:29.542Z,781.02
2017-09-15T00:28:33.884Z,780.99
2017-09-15T00:28:38.099Z,781.01
2017-09-15T00:28:42.320Z,780.96
2017-09-15T00:28:46.658Z,780.98
2017-09-15T00:28:50.502Z,780.95
2017-09-15T00:28:54.582Z,780.94
2017-09-15T00:28:58.438Z,780.98
2017-09-15T00:29:02.521Z,780.98
2017-09-15T00:29:06.861Z,780.98
2017-09-15T00:29:11.193Z,780.97
2017-09-15T00:29:15.277Z,781
2017-09-15T00:29:19.360Z,781
2017-09-15T00:29:23.324Z,781.02
2017-09-15T00:29:27.660Z,781.01
2017-09-15T00:29:31.612Z,780.96
2017-09-15T00:29:35.567Z,780.97
2017-09-15T00:29:40.029Z,780.99
2017-09-15T00:29:44.237Z,781
2017-09-15T00:29:48.205Z,780.97
2017-09-15T00:29:52.536Z,780.97
2017-09-15T00:29:56.383Z,781.01
2017-09-15T00:30:00.759Z,781
2017-09-15T00:30:05.027Z,780.99
2017-09-15T00:30:09.488Z,780.96
2017-09-15T00:30:13.568Z,781.02
2017-09-15T00:30:17.906Z,781.01
2017-09-15T00:30:21.859Z,780.96
2017-09-15T00:30:26.075Z,780.99
2017-09-15T00:30:30.284Z,780.98
2017-09-15T00:30:34.633Z,780.96
2017-09-15T00:30:38.591Z,781
2017-09-15T00:30:42.536Z,780.98
2017-09-15T00:30:47.003Z,780.99
2017-09-15T00:30:51.084Z,780.97
2017-09-15T00:30:55.432Z,780.97
2017-09-15T00:30:59.520Z,780.96
2017-09-15T00:31:03.612Z,780.98
2017-09-15T00:31:07.850Z,780.97
2017-09-15T00:31:11.927Z,780.97
2017-09-15T00:31:16.248Z,780.95
2017-09-15T00:31:20.575Z,780.96
2017-09-15T00:31:24.911Z,780.95
2017-09-15T00:31:29.371Z,780.96
2017-09-15T00:31:33.568Z,780.97
2017-09-15T00:31:37.915Z,780.94
2017-09-15T00:31:41.889Z,781
2017-09-15T00:31:45.966Z,780.95
2017-09-15T00:31:50.167Z,780.94
2017-09-15T00:31:54.381Z,780.94
2017-09-15T00:31:58.618Z,780.95
2017-09-15T00:32:02.954Z,780.9
2017-09-15T00:32:07.043Z,780.88
2017-09-15T00:32:11.263Z,780.96
2017-09-15T00:32:15.350Z,780.9
2017-09-15T00:32:19.687Z,780.89
2017-09-15T00:32:23.770Z,780.9
2017-09-15T00:32:27.974Z,780.87
2017-09-15T00:32:32.178Z,780.89
2017-09-15T00:32:36.138Z,780.91
2017-09-15T00:32:40.241Z,780.89
2017-09-15T00:32:44.069Z,780.9
2017-09-15T00:32:48.278Z,780.89
2017-09-15T00:32:52.361Z,780.89
2017-09-15T00:32:56.309Z,780.89
2017-09-15T00:33:00.633Z,780.86
2017-09-15T00:33:04.725Z,780.86
2017-09-15T00:33:08.803Z,780.9
2017-09-15T00:33:12.890Z,780.89
2017-09-15T00:33:17.221Z,780.9
2017-09-15T00:33:21.558Z,780.87
2017-09-15T00:33:25.523Z,780.86
2017-09-15T00:33:29.593Z,780.87
2017-09-15T00:33:34.059Z,780.91
2017-09-15T00:33:38.399Z,780.82
2017-09-15T00:33:42.482Z,780.83
2017-09-15T00:33:46.955Z,780.88
2017-09-15T00:33:51.036Z,780.83
2017-09-15T00:33:54.996Z,780.82
2017-09-15T00:33:58.833Z,780.85
2017-09-15T00:34:02.914Z,780.83
2017-09-15T00:34:07.136Z,780.88
2017-09-15T00:34:11.486Z,780.89
2017-09-15T00:34:15.567Z,780.83
2017-09-15T00:34:19.761Z,780.86
2017-09-15T00:34:23.843Z,780.85
2017-09-15T00:34:27.821Z,780.87
2017-09-15T00:34:32.049Z,780.85
2017-09-15T00:34:36.395Z,780.89
2017-09-15T00:34:40.739Z,780.89
2017-09-15T00:34:44.960Z,780.88
2017-09-15T00:34:48.937Z,780.91
2017-09-15T00:34:53.282Z,780.88
2017-09-15T00:34:57.249Z,780.89
2017-09-15T00:35:01.346Z,780.89
2017-09-15T00:35:05.357Z,780.88
2017-09-15T00:35:09.453Z,780.88
2017-09-15T00:35:13.401Z,780.85
2017-09-15T00:35:17.364Z,780.86
2017-09-15T00:35:21.693Z,780.84
2017-09-15T00:35:25.775Z,780.88
2017-09-15T00:35:29.848Z,780.89
2017-09-15T00:35:34.189Z,780.89
2017-09-15T00:35:38.531Z,780.9
2017-09-15T00:35:42.500Z,780.89
2017-09-15T00:35:46.851Z,780.9
2017-09-15T00:35:51.191Z,780.88
2017-09-15T00:35:55.400Z,780.81
2017-09-15T00:35:59.486Z,780.89
2017-09-15T00:36:03.993Z,780.84
2017-09-15T00:36:07.934Z,780.86
2017-09-15T00:36:12.271Z,780.87
2017-09-15T00:36:16.230Z,780.85
2017-09-15T00:36:20.313Z,780.85
2017-09-15T00:36:24.772Z,780.85
2017-09-15T00:36:28.854Z,780.88
2017-09-15T00:36:33.313Z,780.87
2017-09-15T00:36:37.645Z,780.89
2017-09-15T00:36:41.963Z,780.87
2017-09-15T00:36:46.182Z,780.89
2017-09-15T00:36:50.285Z,780.9
2017-09-15T00:36:54.500Z,780.88
2017-09-15T00:36:58.712Z,780.87
2017-09-15T00:37:02.865Z,780.85
2017-09-15T00:37:06.697Z,780.88
2017-09-15T00:37:10.914Z,780.89
2017-09-15T00:37:14.987Z,780.85
2017-09-15T00:37:19.074Z,780.84
2017-09-15T00:37:23.165Z,780.86
2017-09-15T00:37:27.681Z,780.86
2017-09-15T00:37:31.766Z,780.85
2017-09-15T00:37:35.716Z,780.78
2017-09-15T00:37:39.930Z,780.81
2017-09-15T00:37:44.391Z,780.79
2017-09-15T00:37:48.341Z,780.79
2017-09-15T00:37:52.306Z,780.85
2017-09-15T00:37:56.401Z,780.86
2017-09-15T00:38:00.506Z,780.88
2017-09-15T00:38:04.832Z,780.79
2017-09-15T00:38:08.914Z,780.86
2017-09-15T00:38:13.251Z,780.84
2017-09-15T00:38:17.206Z,780.83
2017-09-15T00:38:21.429Z,780.84
2017-09-15T00:38:25.509Z,780.84
2017-09-15T00:38:29.862Z,780.81
2017-09-15T00:38:34.198Z,780.84
2017-09-15T00:38:38.281Z,780.79
2017-09-15T00:38:42.363Z,780.8
2017-09-15T00:38:46.206Z,780.79
2017-09-15T00:38:50.171Z,780.79
2017-09-15T00:38:54.498Z,780.83
2017-09-15T00:38:58.589Z,780.82
2017-09-15T00:39:02.666Z,780.81
2017-09-15T00:39:07.023Z,780.8
2017-09-15T00:39:11.366Z,780.82
2017-09-15T00:39:15.575Z,780.79
2017-09-15T00:39:19.648Z,780.79
2017-09-15T00:39:23.849Z,780.79
2017-09-15T00:39:28.048Z,780.78
2017-09-15T00:39:32.249Z,780.77
2017-09-15T00:39:36.705Z,780.79
2017-09-15T00:39:41.163Z,780.78
2017-09-15T00:39:45.116Z,780.76
2017-09-15T00:39:49.221Z,780.76
2017-09-15T00:39:53.168Z,780.74
2017-09-15T00:39:57.367Z,780.75
2017-09-15T00:40:01.340Z,780.72
2017-09-15T00:40:05.721Z,780.76
2017-09-15T00:40:09.812Z,780.76
2017-09-15T00:40:14.022Z,780.72
2017-09-15T00:40:18.241Z,780.68
2017-09-15T00:40:22.451Z,780.72
2017-09-15T00:40:26.423Z,780.74
2017-09-15T00:40:30.747Z,780.72
2017-09-15T00:40:35.076Z,780.74
2017-09-15T00:40:39.054Z,780.72
2017-09-15T00:40:42.898Z,780.72
2017-09-15T00:40:47.106Z,780.73
2017-09-15T00:40:51.059Z,780.65
2017-09-15T00:40:55.415Z,780.68
2017-09-15T00:40:59.740Z,780.69
2017-09-15T00:41:03.837Z,780.67
2017-09-15T00:41:08.167Z,780.7
2017-09-15T00:41:12.136Z,780.66
2017-09-15T00:41:16.089Z,780.69
2017-09-15T00:41:20.295Z,780.68
2017-09-15T00:41:24.370Z,780.63
2017-09-15T00:41:28.466Z,780.67
2017-09-15T00:41:32.550Z,780.71
2017-09-15T00:41:36.619Z,780.7
2017-09-15T00:41:40.712Z,780.72
2017-09-15T00:41:44.804Z,780.71
2017-09-15T00:41:48.885Z,780.68
2017-09-15T00:41:52.970Z,780.69
2017-09-15T00:41:57.193Z,780.67
2017-09-15T00:42:01.281Z,780.67
2017-09-15T00:42:05.223Z,780.65
2017-09-15T00:42:09.195Z,780.66
2017-09-15T00:42:13.513Z,780.66
2017-09-15T00:42:17.733Z,780.69
2017-09-15T00:42:21.822Z,780.62
2017-09-15T00:42:26.149Z,780.63
2017-09-15T00:42:30.496Z,780.65
2017-09-15T00:42:34.823Z,780.66
2017-09-15T00:42:39.157Z,780.66
2017-09-15T00:42:43.234Z,780.67
2017-09-15T00:42:47.444Z,780.68
2017-09-15T00:42:51.655Z,780.67
2017-09-15T00:42:55.746Z,780.65
2017-09-15T00:42:59.824Z,780.65
2017-09-15T00:43:03.824Z,780.64
2017-09-15T00:43:07.909Z,780.65
2017-09-15T00:43:12.128Z,780.67
2017-09-15T00:43:16.468Z,780.68
2017-09-15T00:43:20.675Z,780.69
2017-09-15T00:43:24.896Z,780.64
2017-09-15T00:43:29.030Z,780.67
2017-09-15T00:43:33.231Z,780.64
2017-09-15T00:43:37.199Z,780.6
2017-09-15T00:43:41.428Z,780.62
2017-09-15T00:43:45.769Z,780.58
2017-09-15T00:43:50.104Z,780.63
2017-09-15T00:43:54.553Z,780.59
2017-09-15T00:43:58.889Z,780.61
2017-09-15T00:44:03.323Z,780.63
2017-09-15T00:44:07.534Z,780.66
2017-09-15T00:44:11.749Z,780.64
2017-09-15T00:44:15.967Z,780.63
2017-09-15T00:44:20.051Z,780.62
2017-09-15T00:44:24.259Z,780.61
2017-09-15T00:44:28.358Z,780.63
2017-09-15T00:44:32.436Z,780.64
2017-09-15T00:44:36.634Z,780.63
2017-09-15T00:44:40.960Z,780.62
2017-09-15T00:44:45.435Z,780.59
2017-09-15T00:44:49.650Z,780.58
2017-09-15T00:44:53.628Z,780.63
2017-09-15T00:44:57.957Z,780.62
2017-09-15T00:45:02.416Z,780.59
2017-09-15T00:45:06.515Z,780.58
2017-09-15T00:45:10.717Z,780.58
2017-09-15T00:45:14.926Z,780.57
2017-09-15T00:45:18.871Z,780.6
2017-09-15T00:45:22.968Z,780.57
2017-09-15T00:45:27.303Z,780.57
2017-09-15T00:45:31.245Z,780.56
2017-09-15T00:45:35.455Z,780.57
2017-09-15T00:45:39.789Z,780.59
2017-09-15T00:45:43.754Z,780.58
2017-09-15T00:45:47.968Z,780.6
2017-09-15T00:45:52.093Z,780.54
2017-09-15T00:45:56.298Z,780.58
2017-09-15T00:46:00.375Z,780.59
2017-09-15T00:46:04.584Z,780.54
2017-09-15T00:46:08.682Z,780.49
2017-09-15T00:46:12.905Z,780.52
2017-09-15T00:46:17.104Z,780.51
2017-09-15T00:46:21.389Z,780.5
2017-09-15T00:46:25.620Z,780.57
2017-09-15T00:46:29.967Z,780.5
2017-09-15T00:46:34.042Z,780.55
2017-09-15T00:46:37.997Z,780.49
2017-09-15T00:46:42.468Z,780.49
2017-09-15T00:46:46.801Z,780.5
2017-09-15T00:46:50.878Z,780.49
2017-09-15T00:46:54.958Z,780.46
2017-09-15T00:46:59.056Z,780.51
2017-09-15T00:47:03.229Z,780.54
2017-09-15T00:47:07.207Z,780.51
2017-09-15T00:47:11.409Z,780.48
2017-09-15T00:47:15.378Z,780.53
2017-09-15T00:47:19.593Z,780.52
2017-09-15T00:47:24.046Z,780.51
2017-09-15T00:47:28.133Z,780.5
2017-09-15T00:47:32.210Z,780.51
2017-09-15T00:47:36.175Z,780.52
2017-09-15T00:47:40.507Z,780.52
2017-09-15T00:47:44.575Z,780.51
2017-09-15T00:47:48.792Z,780.51
2017-09-15T00:47:52.993Z,780.48
2017-09-15T00:47:57.192Z,780.46
2017-09-15T00:48:01.406Z,780.5
2017-09-15T00:48:05.793Z,780.53
2017-09-15T00:48:10.135Z,780.51
2017-09-15T00:48:14.105Z,780.54
2017-09-15T00:48:18.071Z,780.51
2017-09-15T00:48:22.291Z,780.46
2017-09-15T00:48:26.776Z,780.45
2017-09-15T00:48:31.119Z,780.45
2017-09-15T00:48:35.339Z,780.49
2017-09-15T00:48:39.562Z,780.52
2017-09-15T00:48:43.396Z,780.47
2017-09-15T00:48:47.620Z,780.46
2017-09-15T00:48:51.579Z,780.51
2017-09-15T00:48:55.797Z,780.53
2017-09-15T00:48:59.881Z,780.51
2017-09-15T00:49:04.176Z,780.53
2017-09-15T00:49:08.138Z,780.51
2017-09-15T00:49:12.339Z,780.52
2017-09-15T00:49:16.311Z,780.51
2017-09-15T00:49:20.686Z,780.47
2017-09-15T00:49:24.641Z,780.51
2017-09-15T00:49:28.981Z,780.52
2017-09-15T00:49:32.677Z,780.53
2017-09-15T00:49:36.751Z,780.49
2017-09-15T00:49:40.833Z,780.51
2017-09-15T00:49:44.904Z,780.49
2017-09-15T00:49:49.112Z,780.53
2017-09-15T00:49:52.926Z,780.52
2017-09-15T00:49:57.007Z,780.5
2017-09-15T00:50:01.087Z,780.52
2017-09-15T00:50:05.290Z,780.56
2017-09-15T00:50:09.643Z,780.51
2017-09-15T00:50:13.872Z,780.54
2017-09-15T00:50:18.086Z,780.5
2017-09-15T00:50:22.186Z,780.5
2017-09-15T00:50:26.412Z,780.54
2017-09-15T00:50:30.508Z,780.55
2017-09-15T00:50:34.476Z,780.55
2017-09-15T00:50:38.416Z,780.54
2017-09-15T00:50:42.390Z,780.53
2017-09-15T00:50:46.481Z,780.55
2017-09-15T00:50:50.565Z,780.51
2017-09-15T00:50:54.515Z,780.55
2017-09-15T00:50:58.473Z,780.53
2017-09-15T00:51:02.786Z,780.54
2017-09-15T00:51:06.743Z,780.54
2017-09-15T00:51:10.700Z,780.53
2017-09-15T00:51:14.913Z,780.55
2017-09-15T00:51:19.009Z,780.54
2017-09-15T00:51:23.327Z,780.58
2017-09-15T00:51:27.655Z,780.56
2017-09-15T00:51:31.751Z,780.57
2017-09-15T00:51:35.961Z,780.55
2017-09-15T00:51:40.039Z,780.53
2017-09-15T00:51:44.114Z,780.53
2017-09-15T00:51:48.312Z,780.52
2017-09-15T00:51:52.526Z,780.48
2017-09-15T00:51:56.366Z,780.56
2017-09-15T00:52:00.458Z,780.53
2017-09-15T00:52:04.429Z,780.53